createdAt,value
2018-07-09T00:00:13.984Z,13.30
2018-07-09T00:03:19.680Z,13.30
2018-07-09T00:06:24.429Z,13.40
2018-07-09T00:09:35.897Z,13.40
2018-07-09T00:12:41.328Z,13.40
2018-07-09T00:15:46.659Z,13.50
2018-07-09T00:18:51.375Z,13.50
2018-07-09T00:25:08.071Z,13.50
2018-07-09T00:28:14.214Z,13.50
2018-07-09T00:31:20.139Z,13.50
2018-07-09T00:34:28.333Z,13.50
2018-07-09T00:37:33.704Z,13.60
2018-07-09T00:40:48.921Z,13.60
2018-07-09T00:43:58.242Z,13.60
2018-07-09T00:47:07.476Z,13.70
2018-07-09T00:50:13.405Z,13.70
2018-07-09T00:53:20.672Z,13.80
2018-07-09T00:56:25.751Z,13.80
2018-07-09T00:59:30.343Z,13.80
2018-07-09T01:02:36.109Z,13.90
2018-07-09T01:05:46.830Z,13.90
2018-07-09T01:08:51.905Z,14.10
2018-07-09T01:12:10.258Z,14.10
2018-07-09T01:15:16.888Z,14.20
2018-07-09T01:18:31.429Z,14.30
2018-07-09T01:21:39.705Z,14.30
2018-07-09T01:24:44.598Z,14.30
2018-07-09T01:27:49.527Z,14.20
2018-07-09T01:30:55.946Z,14.20
2018-07-09T01:34:00.335Z,14.20
2018-07-09T01:40:16.780Z,14.20
2018-07-09T01:43:28.783Z,14.20
2018-07-09T01:46:33.359Z,14.20
2018-07-09T01:52:43.011Z,14.20
2018-07-09T01:55:49.734Z,14.20
2018-07-09T01:58:54.304Z,14.30
2018-07-09T02:02:01.065Z,14.30
2018-07-09T02:05:05.524Z,14.30
2018-07-09T02:08:10.785Z,14.30
2018-07-09T02:11:15.841Z,14.30
2018-07-09T02:14:20.371Z,14.40
2018-07-09T02:17:26.138Z,14.40
2018-07-09T02:20:31.138Z,14.50
2018-07-09T02:23:35.833Z,14.60
2018-07-09T02:26:41.340Z,14.70
2018-07-09T02:29:45.894Z,14.80
2018-07-09T02:32:50.518Z,14.90
2018-07-09T02:35:56.116Z,15.00
2018-07-09T02:39:01.775Z,15.00
2018-07-09T02:42:06.729Z,15.00
2018-07-09T02:45:12.668Z,15.10
2018-07-09T02:48:18.377Z,15.20
2018-07-09T02:51:23.474Z,15.20
2018-07-09T02:54:28.765Z,15.20
2018-07-09T02:57:34.110Z,15.20
2018-07-09T03:00:38.882Z,15.20
2018-07-09T03:03:44.378Z,15.20
2018-07-09T03:06:48.939Z,15.20
2018-07-09T03:09:53.482Z,15.30
2018-07-09T03:12:59.320Z,15.30
2018-07-09T03:16:04.811Z,15.20
2018-07-09T03:19:12.689Z,15.30
2018-07-09T03:22:17.519Z,15.30
2018-07-09T03:25:22.831Z,15.30
2018-07-09T03:31:32.219Z,15.30
2018-07-09T03:34:38.697Z,15.40
2018-07-09T03:37:43.072Z,15.40
2018-07-09T03:40:47.357Z,15.50
2018-07-09T03:43:52.054Z,15.50
2018-07-09T03:46:59.396Z,15.60
2018-07-09T03:50:10.948Z,15.70
2018-07-09T03:53:15.306Z,15.70
2018-07-09T03:56:20.362Z,15.70
2018-07-09T03:59:26.476Z,15.70
2018-07-09T04:02:31.631Z,15.80
2018-07-09T04:05:36.287Z,15.80
2018-07-09T04:11:44.841Z,15.80
2018-07-09T04:14:49.123Z,15.80
2018-07-09T04:17:53.625Z,15.70
2018-07-09T04:20:58.168Z,15.70
2018-07-09T04:24:02.585Z,15.70
2018-07-09T04:27:08.237Z,15.80
2018-07-09T04:30:12.675Z,15.40
2018-07-09T04:33:17.257Z,15.90
2018-07-09T04:36:22.061Z,15.90
2018-07-09T04:39:26.516Z,15.90
2018-07-09T04:42:31.296Z,15.90
2018-07-09T04:45:36.254Z,15.90
2018-07-09T04:48:40.590Z,15.90
2018-07-09T04:51:45.096Z,15.90
2018-07-09T04:54:49.404Z,15.90
2018-07-09T04:57:53.823Z,15.90
2018-07-09T05:00:58.392Z,15.90
2018-07-09T05:04:02.853Z,15.90
2018-07-09T05:07:07.206Z,15.90
2018-07-09T05:10:11.645Z,15.90
2018-07-09T05:13:16.065Z,15.90
2018-07-09T05:16:20.703Z,15.90
2018-07-09T05:19:25.110Z,15.90
2018-07-09T05:22:29.625Z,16.00
2018-07-09T05:25:34.505Z,16.10
2018-07-09T05:28:39.141Z,16.00
2018-07-09T05:31:43.616Z,16.00
2018-07-09T05:34:48.211Z,16.00
2018-07-09T05:37:53.114Z,16.10
2018-07-09T05:40:58.051Z,16.10
2018-07-09T05:44:02.822Z,16.10
2018-07-09T05:47:07.292Z,16.10
2018-07-09T05:50:11.674Z,16.00
2018-07-09T05:53:16.520Z,15.90
2018-07-09T05:56:23.379Z,15.90
2018-07-09T05:59:29.925Z,15.90
2018-07-09T06:02:34.685Z,15.90
2018-07-09T06:05:39.038Z,15.80
2018-07-09T06:08:43.375Z,15.90
2018-07-09T06:11:48.030Z,15.90
2018-07-09T06:14:53.724Z,16.10
2018-07-09T06:17:58.159Z,16.30
2018-07-09T06:21:02.560Z,16.30
2018-07-09T06:24:07.200Z,16.30
2018-07-09T06:27:11.931Z,16.10
2018-07-09T06:30:16.610Z,15.80
2018-07-09T06:33:20.951Z,15.80
2018-07-09T06:36:25.386Z,15.60
2018-07-09T06:39:29.894Z,15.60
2018-07-09T06:42:34.312Z,15.60
2018-07-09T06:45:38.811Z,15.60
2018-07-09T06:48:43.101Z,15.60
2018-07-09T06:51:47.424Z,15.50
2018-07-09T06:54:52.837Z,15.50
2018-07-09T06:57:57.202Z,15.40
2018-07-09T07:01:01.649Z,15.60
2018-07-09T07:04:06.336Z,15.60
2018-07-09T07:07:10.815Z,15.70
2018-07-09T07:10:15.112Z,15.70
2018-07-09T07:13:19.392Z,15.60
2018-07-09T07:16:23.827Z,15.70
2018-07-09T07:19:28.179Z,15.60
2018-07-09T07:22:32.541Z,15.80
2018-07-09T07:25:37.240Z,15.80
2018-07-09T07:28:41.717Z,15.80
2018-07-09T07:31:46.171Z,15.90
2018-07-09T07:34:50.841Z,15.80
2018-07-09T07:37:55.176Z,15.70
2018-07-09T07:40:59.761Z,15.60
2018-07-09T07:44:04.224Z,15.60
2018-07-09T07:47:09.178Z,15.60
2018-07-09T07:50:13.919Z,15.60
2018-07-09T07:53:18.283Z,15.60
2018-07-09T07:56:22.601Z,15.60
2018-07-09T07:59:27.152Z,15.60
2018-07-09T08:02:31.467Z,15.50
2018-07-09T08:05:35.812Z,15.40
2018-07-09T08:08:40.278Z,15.50
2018-07-09T08:11:48.552Z,15.50
2018-07-09T08:14:49.679Z,15.40
2018-07-09T08:17:54.033Z,15.30
2018-07-09T08:20:59.200Z,15.30
2018-07-09T08:27:08.054Z,15.30
2018-07-09T08:30:12.735Z,15.40
2018-07-09T08:33:17.079Z,15.40
2018-07-09T08:36:21.438Z,15.40
2018-07-09T08:42:30.076Z,15.30
2018-07-09T08:45:35.356Z,15.20
2018-07-09T08:48:39.857Z,15.10
2018-07-09T08:51:45.500Z,15.10
2018-07-09T08:54:49.820Z,15.00
2018-07-09T08:57:55.399Z,15.20
2018-07-09T09:01:00.369Z,15.30
2018-07-09T09:04:05.099Z,15.40
2018-07-09T09:07:09.666Z,15.30
2018-07-09T09:10:14.123Z,15.40
2018-07-09T09:13:20.341Z,15.50
2018-07-09T09:16:24.669Z,15.50
2018-07-09T09:19:29.040Z,15.30
2018-07-09T09:22:33.526Z,15.30
2018-07-09T09:25:38.221Z,15.30
2018-07-09T09:28:42.805Z,15.40
2018-07-09T09:31:47.465Z,15.50
2018-07-09T09:34:51.837Z,15.80
2018-07-09T09:37:56.503Z,16.30
2018-07-09T09:41:00.865Z,16.30
2018-07-09T09:44:05.412Z,16.60
2018-07-09T09:47:09.818Z,16.70
2018-07-09T09:50:14.128Z,16.80
2018-07-09T09:53:18.452Z,16.80
2018-07-09T09:56:24.454Z,16.70
2018-07-09T09:59:28.854Z,16.80
2018-07-09T10:02:33.910Z,16.90
2018-07-09T10:05:38.633Z,16.80
2018-07-09T10:08:43.275Z,16.80
2018-07-09T10:11:47.940Z,16.80
2018-07-09T10:14:52.418Z,16.60
2018-07-09T10:17:57.175Z,16.70
2018-07-09T10:21:01.528Z,16.50
2018-07-09T10:24:06.082Z,16.70
2018-07-09T10:27:11.579Z,16.70
2018-07-09T10:30:16.645Z,16.90
2018-07-09T10:33:21.073Z,16.90
2018-07-09T10:36:26.209Z,16.80
2018-07-09T10:39:31.235Z,16.90
2018-07-09T10:42:36.363Z,16.80
2018-07-09T10:45:42.849Z,16.70
2018-07-09T10:48:47.343Z,16.70
2018-07-09T10:51:52.366Z,16.70
2018-07-09T10:54:59.319Z,16.30
2018-07-09T10:58:04.186Z,16.10
2018-07-09T11:01:13.203Z,16.20
2018-07-09T11:04:18.089Z,16.20
2018-07-09T11:07:22.719Z,16.00
2018-07-09T11:10:27.486Z,16.10
2018-07-09T11:13:32.034Z,16.10
2018-07-09T11:16:36.990Z,16.00
2018-07-09T11:19:41.456Z,15.90
2018-07-09T11:22:47.437Z,16.00
2018-07-09T11:25:51.927Z,15.90
2018-07-09T11:28:56.861Z,16.10
2018-07-09T11:32:01.314Z,16.30
2018-07-09T11:35:06.057Z,16.30
2018-07-09T11:38:10.385Z,16.30
2018-07-09T11:41:15.011Z,16.10
2018-07-09T11:44:20.443Z,16.10
2018-07-09T11:47:25.102Z,16.00
2018-07-09T11:50:29.910Z,16.00
2018-07-09T11:53:34.290Z,16.20
2018-07-09T11:56:38.756Z,16.30
2018-07-09T11:59:43.721Z,16.40
2018-07-09T12:02:48.213Z,16.50
2018-07-09T12:05:52.731Z,16.60
2018-07-09T12:08:57.769Z,16.40
2018-07-09T12:12:03.052Z,16.10
2018-07-09T12:15:07.402Z,16.00
2018-07-09T12:18:11.779Z,15.90
2018-07-09T12:21:16.340Z,16.10
2018-07-09T12:24:22.555Z,16.20
2018-07-09T12:27:27.120Z,16.30
2018-07-09T12:30:31.465Z,16.40
2018-07-09T12:33:35.911Z,16.40
2018-07-09T12:36:42.333Z,16.60
2018-07-09T12:39:47.338Z,16.80
2018-07-09T12:42:52.989Z,17.10
2018-07-09T12:45:58.201Z,17.20
2018-07-09T12:49:03.333Z,17.40
2018-07-09T12:52:07.881Z,17.40
2018-07-09T12:55:13.210Z,17.30
2018-07-09T12:58:18.090Z,17.40
2018-07-09T13:01:23.173Z,17.60
2018-07-09T13:04:27.859Z,17.70
2018-07-09T13:07:33.186Z,17.80
2018-07-09T13:10:38.699Z,17.60
2018-07-09T13:13:43.586Z,17.60
2018-07-09T13:16:49.056Z,17.70
2018-07-09T13:19:53.413Z,17.70
2018-07-09T13:22:58.311Z,17.70
2018-07-09T13:26:03.349Z,17.70
2018-07-09T13:29:08.294Z,17.70
2018-07-09T13:32:13.034Z,17.30
2018-07-09T13:35:17.602Z,17.20
2018-07-09T13:38:22.833Z,17.20
2018-07-09T13:41:29.868Z,17.40
2018-07-09T13:44:35.008Z,17.10
2018-07-09T13:50:44.170Z,16.90
2018-07-09T13:53:48.955Z,16.80
2018-07-09T13:56:54.240Z,16.80
2018-07-09T13:59:58.904Z,16.50
2018-07-09T14:03:03.404Z,16.60
2018-07-09T14:06:08.239Z,16.90
2018-07-09T14:09:12.553Z,16.80
2018-07-09T14:12:17.685Z,16.50
2018-07-09T14:15:22.414Z,16.60
2018-07-09T14:18:27.126Z,16.60
2018-07-09T14:21:32.056Z,16.50
2018-07-09T14:24:36.835Z,16.60
2018-07-09T14:27:41.705Z,16.70
2018-07-09T14:30:46.868Z,16.60
2018-07-09T14:36:55.995Z,16.80
2018-07-09T14:40:00.621Z,16.80
2018-07-09T14:43:07.877Z,16.60
2018-07-09T14:46:12.240Z,16.70
2018-07-09T14:49:17.261Z,16.80
2018-07-09T14:52:22.209Z,16.90
2018-07-09T14:55:27.293Z,17.00
2018-07-09T14:58:38.632Z,17.20
2018-07-09T15:01:43.203Z,17.30
2018-07-09T15:04:48.141Z,17.40
2018-07-09T15:07:52.725Z,17.40
2018-07-09T15:10:57.648Z,17.50
2018-07-09T15:14:02.639Z,17.60
2018-07-09T15:17:07.808Z,17.80
2018-07-09T15:20:13.457Z,17.70
2018-07-09T15:23:18.397Z,17.70
2018-07-09T15:26:22.854Z,17.40
2018-07-09T15:29:27.325Z,17.10
2018-07-09T15:32:32.545Z,16.80
2018-07-09T15:35:36.977Z,16.50
2018-07-09T15:38:41.426Z,16.20
2018-07-09T15:41:47.658Z,16.10
2018-07-09T15:44:52.287Z,15.90
2018-07-09T15:47:57.228Z,16.10
2018-07-09T15:51:01.768Z,16.70
2018-07-09T15:54:06.108Z,17.40
2018-07-09T15:57:10.544Z,18.00
2018-07-09T16:00:15.584Z,18.30
2018-07-09T16:03:20.328Z,18.70
2018-07-09T16:06:25.122Z,19.10
2018-07-09T16:09:30.118Z,19.00
2018-07-09T16:12:34.765Z,18.00
2018-07-09T16:15:39.773Z,17.30
2018-07-09T16:18:45.151Z,16.60
2018-07-09T16:21:51.072Z,16.40
2018-07-09T16:24:56.013Z,16.20
2018-07-09T16:28:00.933Z,16.10
2018-07-09T16:31:06.017Z,15.90
2018-07-09T16:34:10.387Z,15.80
2018-07-09T16:37:15.125Z,15.80
2018-07-09T16:40:19.426Z,15.60
2018-07-09T16:43:25.610Z,15.60
2018-07-09T16:46:30.509Z,15.60
2018-07-09T16:49:35.755Z,15.50
2018-07-09T16:52:42.142Z,15.40
2018-07-09T16:55:47.381Z,15.30
2018-07-09T16:58:51.929Z,15.30
2018-07-09T17:01:56.216Z,15.30
2018-07-09T17:05:00.934Z,15.30
2018-07-09T17:08:06.373Z,15.20
2018-07-09T17:11:11.052Z,15.10
2018-07-09T17:14:15.930Z,15.20
2018-07-09T17:17:20.468Z,15.30
2018-07-09T17:20:25.001Z,15.20
2018-07-09T17:23:29.642Z,15.10
2018-07-09T17:26:34.528Z,15.10
2018-07-09T17:29:42.929Z,15.00
2018-07-09T17:32:47.902Z,15.00
2018-07-09T17:35:52.433Z,15.10
2018-07-09T17:38:56.870Z,15.20
2018-07-09T17:42:01.337Z,15.10
2018-07-09T17:45:06.587Z,15.20
2018-07-09T17:48:11.034Z,15.00
2018-07-09T17:51:16.056Z,15.00
2018-07-09T17:54:20.726Z,14.90
2018-07-09T17:57:25.050Z,15.00
2018-07-09T18:00:29.796Z,15.00
2018-07-09T18:03:34.111Z,15.20
2018-07-09T18:06:38.991Z,15.40
2018-07-09T18:09:44.504Z,15.30
2018-07-09T18:12:49.166Z,15.20
2018-07-09T18:15:54.262Z,14.70
2018-07-09T18:18:58.621Z,15.10
2018-07-09T18:22:03.428Z,15.10
2018-07-09T18:25:08.982Z,15.10
2018-07-09T18:28:13.362Z,14.90
2018-07-09T18:31:17.699Z,14.80
2018-07-09T18:34:22.104Z,14.70
2018-07-09T18:37:26.501Z,14.70
2018-07-09T18:40:31.127Z,14.70
2018-07-09T18:43:35.490Z,14.70
2018-07-09T18:46:39.921Z,14.80
2018-07-09T18:49:44.704Z,14.90
2018-07-09T18:52:49.428Z,14.90
2018-07-09T18:58:58.340Z,14.70
2018-07-09T19:02:03.239Z,14.60
2018-07-09T19:05:07.723Z,14.50
2018-07-09T19:08:12.370Z,14.40
2018-07-09T19:11:16.691Z,14.40
2018-07-09T19:14:30.014Z,14.50
2018-07-09T19:19:16.701Z,14.40
2018-07-09T19:22:28.256Z,14.50
2018-07-09T19:25:31.158Z,14.40
2018-07-09T19:28:34.180Z,14.40
2018-07-09T19:31:37.071Z,14.40
2018-07-09T19:34:39.918Z,14.30
2018-07-09T19:37:42.958Z,14.30
2018-07-09T19:40:45.477Z,14.20
2018-07-09T19:43:48.298Z,14.30
2018-07-09T19:46:51.410Z,14.20
2018-07-09T19:49:54.278Z,14.10
2018-07-09T19:52:57.053Z,14.00
2018-07-09T19:55:59.966Z,13.90
2018-07-09T19:59:03.923Z,13.90
2018-07-09T20:02:06.841Z,13.90
2018-07-09T20:05:09.731Z,13.90
2018-07-09T20:08:12.605Z,13.80
2018-07-09T20:11:21.038Z,13.80
2018-07-09T20:14:29.351Z,13.70
2018-07-09T20:17:35.995Z,13.60
2018-07-09T20:20:38.919Z,13.60
2018-07-09T20:23:42.143Z,13.60
2018-07-09T20:26:44.962Z,13.60
2018-07-09T20:29:47.894Z,13.60
2018-07-09T20:32:52.428Z,13.60
2018-07-09T20:35:55.309Z,13.50
2018-07-09T20:38:58.174Z,13.40
2018-07-09T20:42:05.758Z,13.30
2018-07-09T20:45:08.579Z,13.30
2018-07-09T20:48:11.630Z,13.20
2018-07-09T20:51:14.846Z,13.10
2018-07-09T20:54:18.047Z,13.10
2018-07-09T20:57:20.926Z,13.00
2018-07-09T21:00:24.150Z,13.00
2018-07-09T21:03:26.981Z,12.90
2018-07-09T21:09:35.221Z,12.90
2018-07-09T21:12:43.567Z,12.90
2018-07-09T21:15:46.862Z,12.80
2018-07-09T21:18:49.900Z,12.80
2018-07-09T21:21:53.823Z,12.80
2018-07-09T21:24:56.642Z,12.80
2018-07-09T21:27:59.758Z,12.70
2018-07-09T21:31:04.015Z,12.70
2018-07-09T21:34:06.779Z,12.70
2018-07-09T21:37:10.896Z,12.60
2018-07-09T21:40:13.714Z,12.60
2018-07-09T21:43:16.674Z,12.50
2018-07-09T21:46:20.904Z,12.50
2018-07-09T21:52:34.726Z,12.40
2018-07-09T21:55:42.426Z,12.40
2018-07-09T21:58:49.568Z,12.40
2018-07-09T22:01:53.525Z,12.40
2018-07-09T22:04:56.677Z,12.40
2018-07-09T22:08:00.181Z,12.50
2018-07-09T22:11:05.156Z,12.50
2018-07-09T22:14:08.766Z,12.50
2018-07-09T22:17:12.263Z,12.40
2018-07-09T22:20:15.837Z,12.40
2018-07-09T22:23:25.994Z,12.40
2018-07-09T22:26:29.272Z,12.40
2018-07-09T22:32:58.625Z,12.30
2018-07-09T22:36:26.297Z,12.30
2018-07-09T22:39:34.731Z,12.20
2018-07-09T22:45:47.571Z,12.10
2018-07-09T22:48:54.296Z,12.10
2018-07-09T22:52:00.103Z,12.10
2018-07-09T22:56:12.049Z,12.00
2018-07-09T22:59:16.500Z,12.00
2018-07-09T23:02:26.580Z,12.10
2018-07-09T23:05:30.910Z,12.00
2018-07-09T23:08:35.267Z,11.90
2018-07-09T23:13:32.908Z,11.90
2018-07-09T23:16:54.278Z,11.90
2018-07-09T23:20:41.019Z,11.80
2018-07-09T23:23:44.625Z,11.80
2018-07-09T23:26:48.031Z,11.70
2018-07-09T23:29:51.861Z,11.70
2018-07-09T23:32:55.368Z,11.70
2018-07-09T23:35:59.418Z,11.60
2018-07-09T23:39:12.456Z,11.60
2018-07-09T23:42:15.468Z,11.70
2018-07-09T23:45:20.557Z,11.80
2018-07-09T23:48:25.114Z,12.00
2018-07-09T23:51:28.245Z,12.00
2018-07-09T23:54:32.005Z,12.20
